Lady's Island, South Carolina
Current Conditions -  °F | °C
As of 4:35 PM on Sunday 23 Nov 2014 (Local Time) from KARW Reporting Station
Overcast Overcast  
Wind Chill: 68°   Ceiling: 1100
Heat Index: 68°   Visibility: 7mi
Dew Point: 68°   Wind: 5mph
Humidity: 100%   Direction: 110°ESE
Pressure: 29.85"   Gusts: NA
Location:  32.43°N, 80.62°W
Report Text: KARW 232135Z AUTO 11004KT 7SM OVC011 20/20 A2985 RMK AO2 LTG DSNT W P0002
Loading
Personal Weather Stations






























Interactive Weather Map New forecast layout! Learn more

10-Day Weather Forecast

Advertisements
Track Severe Weather on mobile